Time;durP1;ratioP1;P1;durP2;ratioP2;P2;SDS_P1;SDS_P2;PMS_P1;PMS_P2;Temp;Humidity;BMP_temperature;BMP_pressure;BME280_temperature;BME280_humidity;BME280_pressure;Samples;Min_cycle;Max_cycle;Signal;HPM_P1;HPM_P2
2023/05/24 00:01:32;;;;;;;6.50;4.05;;;;;;;15.63;60.72;99577.34;7354622;39;20243;31
2023/05/24 00:07:05;;;;;;;7.47;4.13;;;;;;;15.49;60.60;99578.22;7318101;39;21224;31
2023/05/24 00:12:22;;;;;;;8.60;4.30;;;;;;;15.31;60.91;99576.69;7356156;39;20273;31
2023/05/24 00:17:52;;;;;;;7.57;3.57;;;;;;;15.24;60.90;99572.19;7421857;39;21091;31
2023/05/24 00:23:25;;;;;;;6.43;3.80;;;;;;;15.18;60.19;99568.34;7401862;39;20286;31
2023/05/24 00:28:42;;;;;;;7.35;3.85;;;;;;;15.09;59.76;99565.94;7299299;39;21276;31
2023/05/24 00:39:20;;;;;;;8.90;3.90;;;;;;;14.86;60.36;99555.16;7369677;39;20278;31
2023/05/24 00:44:55;;;;;;;11.95;4.40;;;;;;;14.73;60.92;99554.94;7198572;39;21084;31
2023/05/24 00:50:30;;;;;;;10.74;3.80;;;;;;;14.70;60.68;99552.59;7493788;39;20316;31
2023/05/24 00:56:07;;;;;;;12.77;4.13;;;;;;;14.60;59.99;99538.44;7490059;39;20320;31
2023/05/24 01:01:25;;;;;;;8.80;4.10;;;;;;;14.62;60.14;99536.37;7399177;39;20251;31
2023/05/24 01:07:01;;;;;;;10.60;4.00;;;;;;;14.59;60.31;99532.19;7402644;39;20266;31
2023/05/24 01:12:36;;;;;;;11.43;3.97;;;;;;;14.58;60.18;99530.50;7399438;39;21694;31
2023/05/24 01:18:25;;;;;;;9.30;3.30;;;;;;;14.38;59.71;99532.88;7357015;39;20268;31
2023/05/24 01:29:00;;;;;;;9.60;3.50;;;;;;;14.17;59.44;99543.50;7401251;39;20291;31
2023/05/24 01:39:37;;;;;;;12.20;3.77;;;;;;;14.22;60.13;99548.38;7378457;39;20415;31
2023/05/24 01:50:29;;;;;;;8.00;3.23;;;;;;;14.17;59.67;99557.06;7420913;39;20289;31
2023/05/24 02:07:09;;;;;;;9.53;3.40;;;;;;;13.98;59.81;99573.81;7443646;39;20365;31
2023/05/24 02:12:42;;;;;;;8.53;3.30;;;;;;;13.94;60.38;99569.78;7374024;39;21278;31
2023/05/24 02:18:17;;;;;;;10.75;3.30;;;;;;;13.90;60.25;99568.44;7424557;39;20293;31
2023/05/24 02:23:48;;;;;;;7.25;2.60;;;;;;;13.89;59.82;99583.03;7400563;39;21229;31
2023/05/24 02:29:24;;;;;;;11.87;3.97;;;;;;;13.76;59.33;99583.59;7444724;39;20470;31
2023/05/24 02:34:45;;;;;;;9.85;3.40;;;;;;;13.68;59.39;99585.50;7490306;38;20237;31
2023/05/24 02:40:23;;;;;;;12.25;3.80;;;;;;;13.55;60.02;99580.66;7419267;39;20243;31
2023/05/24 02:45:55;;;;;;;11.75;3.75;;;;;;;13.53;61.07;99583.53;7358987;39;21422;31
2023/05/24 02:51:14;;;;;;;8.90;3.40;;;;;;;13.54;60.68;99578.97;7379280;39;21316;31
2023/05/24 02:56:48;;;;;;;10.57;3.50;;;;;;;13.54;60.67;99573.56;7363408;39;21356;31
2023/05/24 03:02:20;;;;;;;12.55;3.90;;;;;;;13.57;60.79;99572.34;7405812;39;21305;31
2023/05/24 03:07:36;;;;;;;11.27;3.30;;;;;;;13.47;61.08;99567.97;7401001;39;20401;31
2023/05/24 03:13:11;;;;;;;11.05;3.65;;;;;;;13.40;61.37;99571.56;7428463;39;20250;31
2023/05/24 03:18:29;;;;;;;10.80;3.97;;;;;;;13.38;61.72;99570.94;7356110;39;21286;31
2023/05/24 03:23:49;;;;;;;6.60;3.00;;;;;;;13.36;61.25;99562.97;7355709;39;20247;31
2023/05/24 03:29:25;;;;;;;10.65;3.30;;;;;;;13.35;61.45;99563.12;7442176;39;20325;31
2023/05/24 03:35:00;;;;;;;7.90;3.20;;;;;;;13.40;60.77;99569.72;7401443;39;20273;31
2023/05/24 03:40:33;;;;;;;13.90;3.60;;;;;;;13.31;60.44;99573.47;7488636;39;20264;31
2023/05/24 03:46:06;;;;;;;7.30;3.50;;;;;;;13.19;60.54;99576.72;7378228;39;20244;31
2023/05/24 03:51:38;;;;;;;11.00;3.30;;;;;;;13.14;60.21;99587.22;7441560;39;20390;31
2023/05/24 03:56:59;;;;;;;9.77;3.37;;;;;;;13.12;60.37;99586.56;7422197;39;20258;31
2023/05/24 04:02:31;;;;;;;11.63;3.57;;;;;;;13.05;60.48;99589.94;7373963;39;21235;31
2023/05/24 04:12:57;;;;;;;9.20;3.05;;;;;;;13.05;60.48;99594.50;7355536;39;20275;31
2023/05/24 04:23:35;;;;;;;13.70;3.30;;;;;;;12.74;60.86;99591.66;7441845;39;20258;31
2023/05/24 04:33:58;;;;;;;11.47;3.10;;;;;;;12.70;61.04;99581.37;7407839;39;20263;31
2023/05/24 04:39:30;;;;;;;10.65;2.90;;;;;;;12.75;60.87;99587.13;7378306;39;20370;31
2023/05/24 04:50:07;;;;;;;10.53;3.20;;;;;;;12.75;60.18;99603.34;7398660;39;20361;31
2023/05/24 04:55:44;;;;;;;11.50;3.27;;;;;;;12.68;59.55;99605.88;7461253;39;20229;31
2023/05/24 05:01:19;;;;;;;8.90;2.70;;;;;;;12.61;60.04;99599.47;7420385;39;20266;31
2023/05/24 05:06:52;;;;;;;9.65;3.30;;;;;;;12.71;60.10;99597.44;7419932;39;21191;31
2023/05/24 05:12:28;;;;;;;10.95;3.15;;;;;;;12.80;59.33;99595.56;7427019;39;20390;31
2023/05/24 05:17:45;;;;;;;13.10;3.70;;;;;;;12.96;59.43;99596.37;7348829;39;20348;31
2023/05/24 05:23:06;;;;;;;10.70;4.00;;;;;;;13.09;58.93;99601.25;7379102;39;20371;31
2023/05/24 05:28:39;;;;;;;12.40;3.27;;;;;;;13.13;58.35;99597.22;7422448;39;20257;31
2023/05/24 05:34:12;;;;;;;8.80;3.13;;;;;;;13.06;57.49;99601.59;7401822;39;21233;31
2023/05/24 05:39:32;;;;;;;10.23;3.07;;;;;;;13.08;58.22;99600.41;7366047;39;20277;31
2023/05/24 05:45:08;;;;;;;9.55;2.85;;;;;;;13.19;58.05;99601.94;7350390;39;21300;31
2023/05/24 05:50:41;;;;;;;7.33;2.30;;;;;;;13.16;56.64;99601.44;7367373;39;21234;31
2023/05/24 05:55:58;;;;;;;7.40;2.63;;;;;;;13.09;57.89;99609.38;7399698;39;20340;31
2023/05/24 06:01:35;;;;;;;10.80;3.30;;;;;;;13.05;58.57;99599.91;7398159;39;20239;31
2023/05/24 06:12:25;;;;;;;6.60;2.70;;;;;;;13.53;57.20;99616.03;7362252;39;20247;31
2023/05/24 06:17:58;;;;;;;12.75;3.05;;;;;;;13.54;56.45;99628.56;7422055;39;20235;31
2023/05/24 06:23:15;;;;;;;7.90;3.50;;;;;;;13.46;57.31;99623.19;7382773;39;21617;31
2023/05/24 06:28:50;;;;;;;10.87;3.40;;;;;;;13.47;56.75;99621.31;7378681;39;20394;31
2023/05/24 06:34:24;;;;;;;11.50;3.20;;;;;;;13.36;56.70;99619.81;7340528;39;21340;31
2023/05/24 06:39:56;;;;;;;13.10;3.10;;;;;;;13.31;57.82;99635.75;7354480;39;20372;31
2023/05/24 06:45:29;;;;;;;8.70;2.67;;;;;;;13.34;57.69;99638.09;7300578;39;21260;31
2023/05/24 06:51:03;;;;;;;10.77;3.43;;;;;;;13.47;56.72;99641.09;7350992;39;21301;31
2023/05/24 06:56:38;;;;;;;14.45;3.45;;;;;;;13.76;56.56;99648.63;7420356;39;20325;31
2023/05/24 07:01:57;;;;;;;9.30;3.10;;;;;;;13.89;56.30;99648.91;7361188;39;21270;31
2023/05/24 07:07:30;;;;;;;9.40;3.20;;;;;;;14.11;55.59;99639.12;7347097;39;20262;31
2023/05/24 07:12:48;;;;;;;12.60;3.55;;;;;;;14.39;55.40;99639.50;7379342;39;21165;31
2023/05/24 07:18:23;;;;;;;10.10;3.40;;;;;;;14.51;54.63;99646.19;7375596;39;20378;31
2023/05/24 07:23:56;;;;;;;14.65;3.10;;;;;;;14.39;55.83;99663.91;7429720;39;20257;31
2023/05/24 07:29:16;;;;;;;10.70;3.20;;;;;;;14.22;55.53;99660.41;7400470;39;20250;31
2023/05/24 07:34:49;;;;;;;9.70;2.90;;;;;;;14.63;55.41;99663.72;7406320;39;20366;31
2023/05/24 07:40:22;;;;;;;10.35;3.10;;;;;;;15.09;54.46;99652.81;7418452;39;20413;31
2023/05/24 07:45:55;;;;;;;16.85;3.50;;;;;;;15.26;53.94;99662.50;7196881;39;20247;31
2023/05/24 07:51:11;;;;;;;12.67;3.07;;;;;;;15.32;53.29;99651.72;7380546;39;21325;31
2023/05/24 07:56:44;;;;;;;8.37;2.90;;;;;;;15.47;52.53;99657.19;7397343;39;20274;31
2023/05/24 08:02:04;;;;;;;9.63;2.93;;;;;;;15.54;52.15;99660.84;7399725;39;21391;31
2023/05/24 08:07:34;;;;;;;9.02;3.00;;;;;;;15.77;50.23;99652.59;7366804;39;20471;31
2023/05/24 08:18:11;;;;;;;10.85;2.67;;;;;;;15.99;48.50;99654.34;7418137;39;20276;31
2023/05/24 08:28:32;;;;;;;6.33;2.50;;;;;;;16.27;47.95;99659.09;7439938;39;20344;31
2023/05/24 08:34:08;;;;;;;6.90;2.70;;;;;;;16.36;45.10;99656.06;7423173;39;20295;31
2023/05/24 08:39:26;;;;;;;8.37;2.30;;;;;;;16.50;45.85;99655.16;7427720;39;20378;31
2023/05/24 08:45:00;;;;;;;7.67;2.73;;;;;;;16.64;45.48;99650.72;7425253;39;20254;31
2023/05/24 08:50:35;;;;;;;10.80;2.50;;;;;;;16.99;44.34;99647.06;7409339;39;21207;31
2023/05/24 08:56:09;;;;;;;8.60;2.60;;;;;;;17.15;44.30;99645.94;7421821;39;20376;31
2023/05/24 09:01:39;;;;;;;8.57;2.60;;;;;;;17.31;42.11;99645.63;7399306;39;20292;31
2023/05/24 09:07:15;;;;;;;8.70;2.70;;;;;;;17.56;43.28;99649.56;7383222;39;20384;31
2023/05/24 09:12:48;;;;;;;7.10;2.20;;;;;;;17.79;42.92;99652.06;7396897;39;21386;31
2023/05/24 09:18:20;;;;;;;4.50;2.20;;;;;;;17.66;37.59;99657.44;7398998;39;20516;31
2023/05/24 09:23:52;;;;;;;6.87;2.30;;;;;;;17.70;40.41;99653.25;7359979;39;21415;31
2023/05/24 09:29:13;;;;;;;5.07;2.80;;;;;;;17.79;40.68;99657.50;7358243;39;21091;31
2023/05/24 09:39:50;;;;;;;8.75;2.90;;;;;;;17.85;39.51;99666.78;7422602;39;20403;31
2023/05/24 09:50:28;;;;;;;6.30;2.10;;;;;;;17.87;37.79;99638.25;7482290;38;20268;31
2023/05/24 09:56:01;;;;;;;10.70;2.07;;;;;;;17.86;38.41;99642.00;7440786;39;20361;31
2023/05/24 10:06:37;;;;;;;7.20;2.15;;;;;;;18.14;36.70;99638.34;7444097;39;20380;31
2023/05/24 10:12:10;;;;;;;6.90;2.60;;;;;;;18.21;34.41;99634.59;7411673;39;21269;31
2023/05/24 10:22:47;;;;;;;11.27;2.70;;;;;;;18.33;36.09;99626.66;7439672;39;20483;31
2023/05/24 10:28:21;;;;;;;5.37;2.27;;;;;;;18.39;37.72;99621.22;7436433;39;20238;31
2023/05/24 10:33:52;;;;;;;4.53;1.90;;;;;;;18.01;37.90;99623.62;7418856;39;21257;31
2023/05/24 10:39:25;;;;;;;5.85;2.30;;;;;;;18.11;37.73;99614.22;7399505;39;20261;31
2023/05/24 10:44:58;;;;;;;6.07;2.33;;;;;;;18.00;37.39;99611.03;7433215;39;21430;31
2023/05/24 10:55:37;;;;;;;6.50;2.60;;;;;;;17.78;39.57;99612.19;7490935;39;20334;31
2023/05/24 11:06:15;;;;;;;9.17;3.30;;;;;;;18.17;40.36;99616.09;7422188;39;20650;31
2023/05/24 11:16:51;;;;;;;5.13;2.40;;;;;;;18.44;38.20;99623.31;7398151;39;20263;31
2023/05/24 11:27:31;;;;;;;7.80;2.63;;;;;;;18.56;38.18;99596.31;7426163;39;20269;31
2023/05/24 11:37:52;;;;;;;6.40;2.80;;;;;;;18.99;39.13;99597.56;7389899;39;20274;31
2023/05/24 11:43:23;;;;;;;6.85;2.30;;;;;;;18.87;38.20;99597.34;7400608;39;20342;31
2023/05/24 11:48:55;;;;;;;8.73;2.90;;;;;;;18.99;37.93;99588.53;7452977;38;20432;31
2023/05/24 11:59:37;;;;;;;7.83;2.67;;;;;;;19.14;37.89;99583.66;7442420;39;20556;31
2023/05/24 12:05:07;;;;;;;5.40;2.90;;;;;;;19.24;37.69;99581.34;7440338;39;21322;31
2023/05/24 12:10:23;;;;;;;5.55;2.50;;;;;;;19.44;38.51;99581.34;7446368;39;20246;31
2023/05/24 12:15:57;;;;;;;6.87;2.90;;;;;;;19.45;39.26;99580.28;7441564;39;21357;31
2023/05/24 12:21:42;;;;;;;7.05;2.87;;;;;;;19.77;39.27;99582.91;7419868;39;21321;31
2023/05/24 12:32:17;;;;;;;9.50;2.77;;;;;;;19.84;38.54;99566.47;7396707;39;20259;31
2023/05/24 12:37:34;;;;;;;7.10;3.07;;;;;;;19.84;39.55;99562.88;7380060;39;21233;31
2023/05/24 12:43:07;;;;;;;10.00;3.35;;;;;;;19.81;40.11;99561.44;7357395;39;21327;31
2023/05/24 12:48:44;;;;;;;11.67;3.40;;;;;;;20.14;39.13;99540.19;7363952;39;21303;31
2023/05/24 12:59:07;;;;;;;7.65;2.70;;;;;;;20.14;39.15;99544.84;7483441;38;20261;31
2023/05/24 13:09:48;;;;;;;8.70;3.20;;;;;;;20.07;37.01;99533.09;7492015;38;20358;31
2023/05/24 13:20:25;;;;;;;6.53;2.93;;;;;;;20.28;37.66;99521.78;7419294;39;20254;31
2023/05/24 13:25:58;;;;;;;7.53;3.17;;;;;;;20.32;38.83;99531.25;7397773;39;21242;31
2023/05/24 13:31:33;;;;;;;10.27;2.87;;;;;;;20.21;38.02;99526.47;7393431;39;21240;31
2023/05/24 13:37:06;;;;;;;10.55;2.90;;;;;;;20.27;38.79;99528.34;7466395;39;20268;31
2023/05/24 13:42:39;;;;;;;5.27;2.77;;;;;;;20.05;36.87;99524.28;7442190;39;20243;31
2023/05/24 13:48:02;;;;;;;10.50;2.80;;;;;;;19.99;36.90;99512.31;7453897;39;20335;31
2023/05/24 13:53:29;;;;;;;7.45;2.90;;;;;;;20.06;37.76;99514.97;7442348;39;20351;31
2023/05/24 13:59:02;;;;;;;9.00;2.90;;;;;;;20.07;37.36;99514.78;7467156;39;20408;31
2023/05/24 14:04:19;;;;;;;4.90;2.50;;;;;;;20.17;36.59;99525.25;7381726;39;20379;31
2023/05/24 14:09:36;;;;;;;10.33;2.87;;;;;;;20.18;38.37;99526.94;7413993;39;20382;31
2023/05/24 14:15:10;;;;;;;6.90;2.60;;;;;;;20.16;36.15;99516.19;7419468;39;21243;31
2023/05/24 14:20:42;;;;;;;6.93;2.40;;;;;;;20.23;36.67;99516.13;7421086;39;20259;31
2023/05/24 14:26:14;;;;;;;8.10;2.80;;;;;;;20.31;37.44;99526.88;7385470;39;20334;31
2023/05/24 14:31:45;;;;;;;6.80;2.80;;;;;;;20.24;36.32;99512.34;7398959;39;20247;31
2023/05/24 14:37:18;;;;;;;7.37;3.03;;;;;;;20.39;37.91;99520.28;7422832;39;21317;31
2023/05/24 14:42:49;;;;;;;7.85;2.60;;;;;;;20.24;38.01;99529.59;7359212;39;20333;31
2023/05/24 14:48:22;;;;;;;6.03;2.63;;;;;;;20.17;36.22;99523.34;7356847;39;21412;31
2023/05/24 14:53:54;;;;;;;6.10;2.55;;;;;;;20.12;36.71;99525.91;7380485;39;21188;31
2023/05/24 14:59:11;;;;;;;8.44;2.86;;;;;;;19.80;37.81;99530.50;7201715;39;20235;31
2023/05/24 15:04:45;;;;;;;5.23;2.50;;;;;;;19.66;37.64;99533.50;7418996;39;21213;31
2023/05/24 15:10:17;;;;;;;5.97;2.80;;;;;;;19.60;36.27;99529.75;7417085;39;20366;31
2023/05/24 15:15:35;;;;;;;6.05;2.65;;;;;;;19.61;37.71;99534.19;7401624;39;20306;31
2023/05/24 15:21:08;;;;;;;8.33;3.00;;;;;;;19.24;37.23;99523.94;7381814;39;21478;31
2023/05/24 15:26:27;;;;;;;11.18;3.17;;;;;;;18.99;38.08;99532.00;7428204;39;21188;31
2023/05/24 15:32:00;;;;;;;7.00;2.85;;;;;;;19.06;37.10;99523.78;7378553;39;20374;31
2023/05/24 15:37:34;;;;;;;8.90;3.37;;;;;;;18.89;37.42;99528.84;7405780;39;21301;31
2023/05/24 15:42:52;;;;;;;8.53;3.00;;;;;;;18.61;37.71;99531.81;7400058;39;20247;31
2023/05/24 15:48:11;;;;;;;8.27;2.97;;;;;;;18.52;39.06;99541.22;7378917;39;21248;31
2023/05/24 15:53:43;;;;;;;9.67;3.27;;;;;;;18.25;38.25;99526.72;7364316;39;21375;31
2023/05/24 15:59:01;;;;;;;6.70;2.75;;;;;;;18.14;39.92;99529.22;7360220;39;20260;31
2023/05/24 16:04:19;;;;;;;7.70;2.90;;;;;;;18.06;40.17;99537.59;7376584;39;21269;31
2023/05/24 16:09:52;;;;;;;5.97;2.90;;;;;;;17.93;40.27;99536.53;7443390;39;21349;31
2023/05/24 16:15:28;;;;;;;10.80;3.65;;;;;;;18.01;40.71;99547.25;7448976;39;20246;31
2023/05/24 16:20:42;;;;;;;7.30;3.00;;;;;;;17.81;41.96;99546.34;7424314;39;20394;31
2023/05/24 16:26:18;;;;;;;6.30;3.10;;;;;;;17.65;42.41;99540.38;7422922;39;20298;31
2023/05/24 16:31:50;;;;;;;11.90;3.30;;;;;;;17.50;42.17;99543.25;7400831;39;20366;31
2023/05/24 16:37:22;;;;;;;10.15;3.40;;;;;;;17.57;42.48;99547.69;7358061;39;21196;31
2023/05/24 16:42:55;;;;;;;10.20;3.40;;;;;;;17.46;41.88;99539.25;7319721;39;21326;31
2023/05/24 16:48:30;;;;;;;8.95;3.95;;;;;;;17.33;43.12;99536.47;7336834;39;20351;31
2023/05/24 16:54:03;;;;;;;7.75;3.20;;;;;;;17.19;43.04;99541.00;7323732;39;21298;31
2023/05/24 16:59:37;;;;;;;9.45;3.45;;;;;;;17.07;43.11;99532.50;7397393;39;21272;31
2023/05/24 17:04:54;;;;;;;11.90;3.30;;;;;;;17.13;44.31;99545.34;7421302;39;20313;31
2023/05/24 17:10:13;;;;;;;11.40;3.15;;;;;;;17.07;43.96;99542.56;7409762;39;20389;31
2023/05/24 17:15:50;;;;;;;8.97;3.23;;;;;;;16.96;43.38;99543.97;7470055;39;20237;31
2023/05/24 17:21:07;;;;;;;9.60;3.00;;;;;;;17.00;43.65;99544.41;7471372;39;20237;31
2023/05/24 17:26:25;;;;;;;9.37;3.80;;;;;;;17.00;43.90;99545.25;7485865;38;20475;31
2023/05/24 17:32:00;;;;;;;10.20;3.40;;;;;;;16.87;44.04;99547.88;7467037;39;20344;31
2023/05/24 17:37:32;;;;;;;8.30;3.45;;;;;;;16.93;44.85;99555.28;7419380;39;20262;31
2023/05/24 17:42:49;;;;;;;8.30;3.13;;;;;;;16.86;44.20;99557.09;7396255;39;20260;31
2023/05/24 17:58:29;;;;;;;9.45;3.35;;;;;;;16.64;45.01;99552.72;7408092;39;20310;31
2023/05/24 18:08:56;;;;;;;8.60;3.22;;;;;;;16.52;45.56;99562.44;7471278;39;21093;31
2023/05/24 18:19:31;;;;;;;7.03;3.00;;;;;;;16.32;45.60;99570.44;7400034;39;20255;31
2023/05/24 18:29:55;;;;;;;8.90;3.53;;;;;;;16.39;45.60;99573.19;7409060;39;20271;31
2023/05/24 18:35:31;;;;;;;9.93;3.60;;;;;;;16.34;46.26;99573.78;7377934;39;20364;31
2023/05/24 18:41:08;;;;;;;8.95;3.60;;;;;;;16.42;45.90;99580.97;7413791;39;20332;31
2023/05/24 18:46:43;;;;;;;8.67;3.33;;;;;;;16.38;46.41;99585.12;7422171;39;20232;31
2023/05/24 18:52:17;;;;;;;8.87;3.20;;;;;;;16.40;45.97;99585.78;7359799;39;20247;31
2023/05/24 18:57:53;;;;;;;11.30;3.90;;;;;;;16.36;45.97;99589.91;7427216;39;20243;31
2023/05/24 19:03:28;;;;;;;9.20;3.45;;;;;;;16.38;47.02;99594.12;7442074;39;20289;31
2023/05/24 19:09:04;;;;;;;10.35;3.30;;;;;;;16.38;46.04;99591.41;7469430;39;20348;31
2023/05/24 19:14:39;;;;;;;8.97;3.60;;;;;;;16.30;46.61;99601.56;7377748;39;20342;31
2023/05/24 19:19:59;;;;;;;7.03;3.43;;;;;;;16.13;46.61;99600.97;7401587;39;20232;31
2023/05/24 19:25:39;;;;;;;8.65;3.35;;;;;;;16.10;45.97;99598.66;7359268;39;20259;31
2023/05/24 19:31:11;;;;;;;17.30;3.30;;;;;;;16.07;46.57;99604.44;7367408;39;20235;31
2023/05/24 19:36:46;;;;;;;8.70;3.27;;;;;;;16.06;45.94;99611.75;7409309;39;20238;31
2023/05/24 19:42:22;;;;;;;8.67;3.10;;;;;;;16.08;46.37;99603.41;7467862;39;20258;31
2023/05/24 19:47:57;;;;;;;8.90;3.20;;;;;;;15.97;46.55;99614.81;7426867;39;20238;31
2023/05/24 19:53:32;;;;;;;6.95;3.00;;;;;;;16.06;45.73;99614.47;7382980;39;20356;31
2023/05/24 19:59:08;;;;;;;6.73;3.10;;;;;;;15.96;45.35;99613.13;7359421;39;20348;31
2023/05/24 20:04:28;;;;;;;8.50;3.50;;;;;;;15.98;45.32;99622.75;7401582;39;20255;31
2023/05/24 20:09:49;;;;;;;8.83;3.07;;;;;;;15.95;45.65;99628.59;7428268;39;20239;31
2023/05/24 20:15:26;;;;;;;5.63;2.70;;;;;;;15.81;45.53;99618.56;7405175;39;20243;31
2023/05/24 20:21:01;;;;;;;7.85;2.90;;;;;;;15.70;46.05;99617.19;7406651;39;20244;31
2023/05/24 20:26:36;;;;;;;6.70;2.80;;;;;;;15.63;45.67;99629.00;7362230;39;20424;31
2023/05/24 20:32:12;;;;;;;6.40;2.80;;;;;;;15.62;45.55;99630.03;7330603;39;20375;31
2023/05/24 20:42:37;;;;;;;8.00;3.00;;;;;;;15.58;45.22;99631.41;7417775;39;20250;31
2023/05/24 20:48:13;;;;;;;8.60;2.80;;;;;;;15.49;44.87;99621.69;7461746;38;20233;31
2023/05/24 20:53:50;;;;;;;10.10;2.80;;;;;;;15.41;45.01;99628.03;7446043;39;21514;31
2023/05/24 20:59:23;;;;;;;7.75;2.70;;;;;;;15.33;46.30;99626.25;7401759;39;20232;31
2023/05/24 21:05:00;;;;;;;8.95;3.10;;;;;;;15.36;45.45;99629.63;7386614;39;20336;31
2023/05/24 21:10:21;;;;;;;7.03;3.00;;;;;;;15.40;45.94;99633.66;7420175;39;20336;31
2023/05/24 21:15:40;;;;;;;9.00;2.60;;;;;;;15.41;44.94;99621.75;7380475;39;20435;31
2023/05/24 21:21:16;;;;;;;6.10;2.65;;;;;;;15.21;45.60;99626.91;7380692;39;20254;31
2023/05/24 21:26:37;;;;;;;10.77;2.97;;;;;;;15.16;45.74;99627.47;7362663;39;20378;31
2023/05/24 21:31:57;;;;;;;6.47;2.80;;;;;;;15.13;45.50;99627.84;7340412;39;20239;31
2023/05/24 21:37:33;;;;;;;9.00;3.00;;;;;;;15.02;46.70;99622.00;7383887;39;20396;31
2023/05/24 21:43:10;;;;;;;7.50;2.70;;;;;;;14.93;46.27;99632.09;7402583;39;20433;31
2023/05/24 21:48:43;;;;;;;7.70;3.30;;;;;;;14.80;46.78;99631.88;7399658;39;20260;31
2023/05/24 21:54:18;;;;;;;8.40;3.00;;;;;;;14.84;47.54;99634.03;7180506;39;21195;31
2023/05/24 22:04:41;;;;;;;7.50;3.50;;;;;;;14.75;47.91;99645.13;7445828;39;20284;31
2023/05/24 22:10:25;;;;;;;6.20;2.80;;;;;;;14.75;47.85;99642.41;7342516;38;9972711;31
2023/05/24 22:15:46;;;;;;;8.83;2.80;;;;;;;14.78;47.86;99642.94;7562186;38;20264;31
2023/05/24 22:21:06;;;;;;;9.75;2.60;;;;;;;14.65;47.74;99639.12;7493274;38;20242;31
2023/05/24 22:26:45;;;;;;;10.45;2.65;;;;;;;14.55;48.15;99641.25;7494240;38;20368;31
2023/05/24 22:32:02;;;;;;;6.17;2.57;;;;;;;14.54;48.38;99647.69;7450630;39;20345;31
2023/05/24 22:37:37;;;;;;;6.65;2.85;;;;;;;14.42;48.45;99641.84;7466959;38;20296;31
2023/05/24 22:43:12;;;;;;;11.35;2.90;;;;;;;14.31;49.05;99648.47;7513589;38;20347;31
2023/05/24 22:48:48;;;;;;;6.10;2.60;;;;;;;14.26;49.06;99653.59;7513430;38;20359;31
2023/05/24 22:54:22;;;;;;;6.44;2.68;;;;;;;14.26;49.25;99647.34;7516049;38;20237;31
2023/05/24 22:59:58;;;;;;;7.50;2.70;;;;;;;14.27;49.46;99654.44;7471322;39;20253;31
2023/05/24 23:05:20;;;;;;;7.83;3.20;;;;;;;14.17;49.36;99660.09;7469509;39;20287;31
2023/05/24 23:10:56;;;;;;;7.17;3.03;;;;;;;14.13;49.93;99649.81;7469523;39;20395;31
2023/05/24 23:16:32;;;;;;;9.75;3.30;;;;;;;14.12;50.05;99650.81;7448410;39;20345;31
2023/05/24 23:21:51;;;;;;;10.53;3.63;;;;;;;14.11;50.00;99660.81;7420824;39;20408;31
2023/05/24 23:27:26;;;;;;;8.07;2.67;;;;;;;13.98;50.44;99660.53;7427140;39;20296;31
2023/05/24 23:33:03;;;;;;;8.43;3.40;;;;;;;13.81;50.77;99661.66;7444160;39;20249;31
2023/05/24 23:38:23;;;;;;;8.95;3.15;;;;;;;13.80;51.07;99663.50;7442245;39;20242;31
2023/05/24 23:43:51;;;;;;;7.20;3.00;;;;;;;13.74;51.16;99656.06;7518984;39;20418;31
2023/05/24 23:49:23;;;;;;;8.10;3.40;;;;;;;13.73;51.33;99651.69;7422035;39;20255;31
2023/05/24 23:54:43;;;;;;;9.15;3.05;;;;;;;13.67;51.42;99657.81;7421593;39;20313;31
